createdAt,value
2023-03-06T00:00:53.421Z,15.40
2023-03-06T00:03:20.798Z,16.98
2023-03-06T00:05:47.466Z,18.27
2023-03-06T00:08:14.151Z,20.27
2023-03-06T00:10:41.110Z,16.52
2023-03-06T00:13:15.211Z,18.50
2023-03-06T00:15:48.030Z,15.93
2023-03-06T00:18:17.497Z,18.10
2023-03-06T00:20:47.775Z,17.88
2023-03-06T00:23:16.780Z,13.90
2023-03-06T00:25:46.600Z,16.80
2023-03-06T00:28:17.986Z,15.88
2023-03-06T00:30:46.117Z,18.90
2023-03-06T00:33:12.749Z,15.65
2023-03-06T00:35:40.177Z,16.55
2023-03-06T00:38:09.695Z,19.47
2023-03-06T00:40:36.236Z,15.10
2023-03-06T00:43:05.125Z,19.80
2023-03-06T00:45:31.869Z,18.45
2023-03-06T00:47:58.493Z,17.85
2023-03-06T00:50:25.072Z,19.23
2023-03-06T00:52:53.933Z,18.98
2023-03-06T00:55:22.698Z,18.05
2023-03-06T00:57:49.199Z,15.75
2023-03-06T01:00:21.224Z,14.98
2023-03-06T01:02:50.195Z,14.87
2023-03-06T01:05:21.510Z,16.52
2023-03-06T01:07:48.070Z,15.77
2023-03-06T01:10:14.740Z,17.67
2023-03-06T01:12:45.154Z,16.75
2023-03-06T01:15:13.385Z,19.80
2023-03-06T01:17:39.978Z,15.40
2023-03-06T01:20:07.237Z,18.23
2023-03-06T01:22:33.990Z,15.82
2023-03-06T01:25:00.556Z,19.23
2023-03-06T01:27:27.191Z,17.43
2023-03-06T01:29:53.771Z,16.15
2023-03-06T01:32:22.688Z,17.77
2023-03-06T01:34:49.345Z,17.77
2023-03-06T01:37:15.908Z,21.13
2023-03-06T01:39:45.065Z,14.50
2023-03-06T01:42:16.349Z,20.08
2023-03-06T01:45:04.320Z,15.57
2023-03-06T01:47:30.948Z,18.70
2023-03-06T01:50:00.659Z,18.27
2023-03-06T01:52:32.809Z,14.43
2023-03-06T01:55:08.464Z,16.95
2023-03-06T01:57:43.957Z,16.55
2023-03-06T02:00:17.993Z,18.77
2023-03-06T02:02:52.877Z,14.70
2023-03-06T02:05:19.877Z,17.17
2023-03-06T02:07:53.205Z,15.75
2023-03-06T02:10:20.973Z,15.77
2023-03-06T02:12:51.687Z,14.65
2023-03-06T02:15:23.578Z,14.25
2023-03-06T02:17:51.594Z,15.43
2023-03-06T02:20:27.337Z,16.73
2023-03-06T02:23:43.848Z,14.27
2023-03-06T02:26:12.081Z,14.30
2023-03-06T02:28:43.457Z,15.00
2023-03-06T02:31:24.082Z,14.37
2023-03-06T02:34:22.255Z,16.02
2023-03-06T02:36:52.251Z,15.55
2023-03-06T02:39:24.193Z,17.08
2023-03-06T02:41:53.707Z,17.58
2023-03-06T02:44:24.262Z,26.67
2023-03-06T02:46:50.860Z,23.40
2023-03-06T02:49:17.430Z,19.17
2023-03-06T02:51:44.590Z,17.10
2023-03-06T02:54:13.533Z,15.77
2023-03-06T02:56:44.842Z,16.73
2023-03-06T02:59:12.533Z,15.13
2023-03-06T03:01:43.717Z,16.08
2023-03-06T03:04:12.798Z,15.85
2023-03-06T03:06:39.404Z,14.15
2023-03-06T03:09:06.199Z,18.60
2023-03-06T03:11:32.869Z,17.45
2023-03-06T03:13:59.426Z,16.45
2023-03-06T03:16:25.991Z,17.70
2023-03-06T03:18:52.545Z,16.92
2023-03-06T03:21:23.978Z,15.17
2023-03-06T03:23:50.520Z,17.92
2023-03-06T03:26:22.322Z,16.90
2023-03-06T03:28:51.424Z,14.80
2023-03-06T03:31:20.355Z,19.70
2023-03-06T03:33:49.942Z,14.40
2023-03-06T03:36:16.525Z,14.77
2023-03-06T03:38:45.406Z,13.88
2023-03-06T03:41:11.963Z,16.95
2023-03-06T03:43:41.113Z,16.10
2023-03-06T03:46:07.674Z,16.23
2023-03-06T03:48:34.290Z,18.05
2023-03-06T03:51:12.265Z,16.92
2023-03-06T03:53:42.075Z,17.52
2023-03-06T03:56:08.876Z,16.30
2023-03-06T03:58:35.533Z,16.70
2023-03-06T04:01:06.782Z,16.52
2023-03-06T04:03:33.572Z,14.23
2023-03-06T04:06:02.857Z,15.02
2023-03-06T04:08:31.800Z,15.93
2023-03-06T04:11:00.930Z,15.33
2023-03-06T04:13:30.501Z,16.70
2023-03-06T04:15:57.119Z,17.58
2023-03-06T04:18:29.008Z,16.58
2023-03-06T04:20:55.560Z,16.75
2023-03-06T04:23:24.766Z,19.33
2023-03-06T04:25:54.116Z,18.48
2023-03-06T04:28:20.959Z,16.30
2023-03-06T04:30:49.921Z,19.27
2023-03-06T04:33:16.838Z,21.65
2023-03-06T04:35:43.396Z,16.63
2023-03-06T04:38:12.364Z,19.70
2023-03-06T04:40:44.465Z,18.42
2023-03-06T04:43:13.453Z,22.25
2023-03-06T04:45:40.053Z,19.80
2023-03-06T04:48:06.882Z,21.23
2023-03-06T04:50:33.929Z,18.02
2023-03-06T04:53:05.824Z,19.73
2023-03-06T04:55:34.690Z,18.02
2023-03-06T04:58:01.322Z,18.73
2023-03-06T05:00:31.487Z,18.67
2023-03-06T05:03:00.181Z,19.52
2023-03-06T05:05:27.228Z,20.13
2023-03-06T05:07:54.223Z,15.38
2023-03-06T05:10:23.281Z,17.42
2023-03-06T05:12:52.190Z,17.23
2023-03-06T05:15:24.091Z,16.23
2023-03-06T05:17:50.723Z,21.35
2023-03-06T05:20:17.699Z,20.27
2023-03-06T05:22:44.594Z,17.42
2023-03-06T05:25:11.396Z,20.20
2023-03-06T05:27:43.207Z,20.00
2023-03-06T05:30:14.730Z,22.25
2023-03-06T05:32:44.045Z,18.45
2023-03-06T05:35:17.190Z,17.50
2023-03-06T05:37:46.393Z,19.07
2023-03-06T05:40:13.586Z,17.90
2023-03-06T05:42:42.913Z,19.45
2023-03-06T05:45:12.267Z,19.45
2023-03-06T05:47:38.891Z,19.88
2023-03-06T05:50:08.047Z,18.43
2023-03-06T05:52:34.591Z,22.45
2023-03-06T05:55:01.276Z,18.10
2023-03-06T05:57:30.277Z,23.35
2023-03-06T05:59:59.054Z,20.55
2023-03-06T06:02:25.688Z,20.67
2023-03-06T06:04:57.010Z,19.80
2023-03-06T06:07:25.967Z,18.65
2023-03-06T06:09:53.448Z,15.13
2023-03-06T06:12:20.166Z,18.20
2023-03-06T06:14:49.139Z,16.40
2023-03-06T06:17:16.666Z,17.15
2023-03-06T06:19:45.518Z,19.30
2023-03-06T06:22:12.508Z,19.90
2023-03-06T06:24:39.231Z,20.17
2023-03-06T06:27:11.001Z,20.17
2023-03-06T06:29:37.740Z,16.13
2023-03-06T06:32:06.929Z,24.98
2023-03-06T06:34:34.217Z,21.40
2023-03-06T06:37:02.989Z,22.00
2023-03-06T06:39:29.769Z,21.13
2023-03-06T06:42:20.018Z,22.58
2023-03-06T06:44:45.113Z,20.35
2023-03-06T06:47:23.528Z,20.60
2023-03-06T06:49:58.162Z,23.45
2023-03-06T06:52:25.439Z,21.17
2023-03-06T06:54:54.586Z,22.60
2023-03-06T06:57:21.908Z,20.08
2023-03-06T06:59:48.483Z,21.15
2023-03-06T07:02:18.083Z,23.52
2023-03-06T07:05:01.903Z,18.93
2023-03-06T07:07:33.095Z,19.98
2023-03-06T07:09:59.710Z,21.38
2023-03-06T07:12:28.499Z,20.40
2023-03-06T07:14:59.805Z,17.73
2023-03-06T07:17:26.361Z,25.93
2023-03-06T07:19:54.970Z,22.83
2023-03-06T07:22:23.794Z,20.95
2023-03-06T07:24:55.611Z,22.73
2023-03-06T07:27:23.745Z,23.40
2023-03-06T07:29:55.394Z,23.23
2023-03-06T07:32:22.024Z,20.70
2023-03-06T07:34:50.867Z,23.40
2023-03-06T07:37:19.712Z,21.17
2023-03-06T07:39:50.893Z,21.60
2023-03-06T07:42:17.439Z,19.07
2023-03-06T07:44:46.696Z,25.30
2023-03-06T07:47:15.568Z,21.17
2023-03-06T07:49:42.119Z,22.33
2023-03-06T07:52:08.690Z,25.40
2023-03-06T07:54:35.292Z,25.97
2023-03-06T07:57:08.965Z,22.73
2023-03-06T07:59:37.738Z,25.00
2023-03-06T08:02:04.595Z,21.50
2023-03-06T08:04:34.383Z,22.10
2023-03-06T08:07:03.582Z,27.27
2023-03-06T08:09:30.567Z,24.95
2023-03-06T08:11:57.382Z,23.48
2023-03-06T08:14:23.948Z,23.88
2023-03-06T08:16:55.378Z,25.02
2023-03-06T08:19:22.086Z,23.03
2023-03-06T08:21:48.653Z,25.48
2023-03-06T08:24:18.662Z,22.67
2023-03-06T08:26:47.741Z,28.50
2023-03-06T08:29:17.033Z,25.75
2023-03-06T08:31:48.859Z,25.37
2023-03-06T08:34:18.201Z,24.63
2023-03-06T08:36:45.273Z,25.67
2023-03-06T08:39:12.192Z,26.88
2023-03-06T08:41:42.068Z,24.10
2023-03-06T08:44:11.437Z,25.83
2023-03-06T08:46:40.784Z,23.25
2023-03-06T08:49:07.704Z,24.33
2023-03-06T08:51:36.758Z,24.90
2023-03-06T08:54:05.887Z,23.77
2023-03-06T08:56:34.168Z,24.37
2023-03-06T08:59:02.808Z,24.02
2023-03-06T09:01:31.988Z,21.63
2023-03-06T09:04:01.190Z,25.13
2023-03-06T09:06:31.158Z,24.55
2023-03-06T09:08:58.189Z,21.40
2023-03-06T09:11:26.078Z,20.33
2023-03-06T09:13:55.380Z,23.80
2023-03-06T09:16:27.832Z,25.85
2023-03-06T09:18:54.652Z,26.70
2023-03-06T09:21:22.648Z,22.53
2023-03-06T09:23:51.483Z,25.15
2023-03-06T09:26:18.683Z,23.63
2023-03-06T09:28:48.238Z,22.73
2023-03-06T09:31:20.226Z,24.25
2023-03-06T09:33:47.553Z,21.33
2023-03-06T09:36:22.389Z,22.20
2023-03-06T09:38:51.417Z,21.55
2023-03-06T09:41:24.227Z,22.67
2023-03-06T09:43:55.202Z,25.02
2023-03-06T09:46:27.776Z,23.03
2023-03-06T09:49:25.470Z,21.70
2023-03-06T09:52:06.724Z,21.00
2023-03-06T09:54:39.317Z,24.95
2023-03-06T09:57:14.122Z,19.77
2023-03-06T09:59:45.210Z,20.83
2023-03-06T10:02:20.986Z,23.02
2023-03-06T10:04:59.640Z,21.70
2023-03-06T10:07:43.440Z,23.15
2023-03-06T10:10:25.971Z,22.63
2023-03-06T10:13:14.037Z,18.97
2023-03-06T10:15:46.380Z,18.55
2023-03-06T10:18:13.435Z,22.45
2023-03-06T10:20:42.216Z,23.00
2023-03-06T10:23:27.631Z,20.35
2023-03-06T10:26:09.410Z,19.83
2023-03-06T10:28:44.612Z,20.48
2023-03-06T10:31:25.455Z,19.98
2023-03-06T10:34:07.563Z,22.75
2023-03-06T10:36:36.429Z,20.83
2023-03-06T10:39:09.775Z,21.33
2023-03-06T10:41:38.219Z,18.13
2023-03-06T10:44:07.943Z,17.20
2023-03-06T10:46:42.390Z,16.40
2023-03-06T10:49:32.514Z,16.80
2023-03-06T10:52:14.024Z,20.10
2023-03-06T10:54:48.269Z,22.42
2023-03-06T10:57:17.893Z,18.58
2023-03-06T10:59:58.927Z,20.20
2023-03-06T11:02:25.478Z,16.65
2023-03-06T11:04:54.708Z,13.57
2023-03-06T11:07:23.640Z,17.65
2023-03-06T11:09:59.221Z,15.65
2023-03-06T11:12:30.694Z,17.58
2023-03-06T11:15:17.459Z,15.05
2023-03-06T11:18:24.589Z,14.27
2023-03-06T11:20:56.173Z,14.63
2023-03-06T11:23:43.927Z,13.95
2023-03-06T11:26:20.139Z,13.77
2023-03-06T11:29:13.175Z,13.32
2023-03-06T11:31:52.012Z,14.17
2023-03-06T11:34:27.418Z,13.13
2023-03-06T11:37:22.909Z,12.57
2023-03-06T11:40:13.704Z,13.90
2023-03-06T11:43:02.092Z,12.55
2023-03-06T11:45:43.905Z,11.37
2023-03-06T11:48:18.552Z,12.52
2023-03-06T11:50:48.426Z,11.65
2023-03-06T11:53:37.309Z,10.90
2023-03-06T11:56:19.241Z,11.95
2023-03-06T11:59:22.002Z,11.67
2023-03-06T12:02:03.662Z,12.15
2023-03-06T12:05:03.750Z,12.45
2023-03-06T12:07:35.146Z,11.48
2023-03-06T12:10:18.964Z,12.80
2023-03-06T12:12:54.624Z,13.63
2023-03-06T12:15:49.928Z,13.75
2023-03-06T12:18:41.238Z,12.55
2023-03-06T12:21:07.763Z,12.82
2023-03-06T12:23:50.045Z,11.43
2023-03-06T12:26:39.896Z,11.60
2023-03-06T12:29:28.533Z,14.57
2023-03-06T12:32:04.640Z,12.10
2023-03-06T12:34:58.065Z,11.77
2023-03-06T12:37:48.137Z,12.82
2023-03-06T12:40:35.975Z,11.53
2023-03-06T12:43:33.333Z,11.68
2023-03-06T12:46:26.369Z,11.23
2023-03-06T12:49:42.298Z,13.63
2023-03-06T12:52:29.743Z,11.45
2023-03-06T12:54:58.788Z,12.23
2023-03-06T12:57:25.993Z,12.82
2023-03-06T12:59:53.552Z,11.25
2023-03-06T13:02:22.900Z,12.52
2023-03-06T13:05:14.008Z,12.40
2023-03-06T13:07:43.574Z,10.90
2023-03-06T13:10:35.613Z,11.00
2023-03-06T13:13:20.981Z,12.38
2023-03-06T13:16:23.380Z,11.68
2023-03-06T13:18:58.892Z,11.75
2023-03-06T13:21:54.419Z,10.97
2023-03-06T13:24:33.085Z,10.43
2023-03-06T13:27:08.235Z,11.07
2023-03-06T13:29:37.886Z,11.88
2023-03-06T13:32:04.376Z,12.00
2023-03-06T13:34:46.834Z,12.13
2023-03-06T13:37:25.171Z,12.07
2023-03-06T13:39:58.496Z,10.10
2023-03-06T13:42:29.226Z,12.60
2023-03-06T13:44:58.323Z,12.27
2023-03-06T13:47:33.509Z,12.20
2023-03-06T13:50:14.098Z,12.70
2023-03-06T13:53:21.973Z,12.13
2023-03-06T13:56:08.356Z,13.32
2023-03-06T13:58:53.643Z,10.55
2023-03-06T14:01:32.583Z,11.40
2023-03-06T14:04:16.621Z,10.13
2023-03-06T14:07:12.010Z,11.88
2023-03-06T14:09:46.942Z,10.65
2023-03-06T14:12:23.755Z,9.70
2023-03-06T14:14:58.917Z,12.27
2023-03-06T14:17:31.784Z,10.88
2023-03-06T14:20:05.590Z,10.15
2023-03-06T14:22:32.163Z,10.63
2023-03-06T14:25:07.913Z,12.52
2023-03-06T14:27:49.176Z,8.87
2023-03-06T14:30:21.254Z,11.07
2023-03-06T14:32:50.104Z,10.88
2023-03-06T14:35:37.592Z,11.13
2023-03-06T14:38:06.595Z,16.73
2023-03-06T14:40:53.672Z,21.27
2023-03-06T14:43:26.941Z,11.23
2023-03-06T14:46:02.886Z,14.13
2023-03-06T14:48:40.224Z,11.02
2023-03-06T14:51:14.631Z,13.27
2023-03-06T14:53:45.496Z,9.37
2023-03-06T14:56:26.082Z,10.13
2023-03-06T14:58:52.630Z,9.55
2023-03-06T15:01:28.007Z,11.07
2023-03-06T15:03:59.785Z,10.45
2023-03-06T15:06:37.743Z,12.40
2023-03-06T15:09:08.053Z,14.30
2023-03-06T15:11:51.215Z,13.68
2023-03-06T15:14:19.817Z,11.15
2023-03-06T15:16:48.855Z,12.95
2023-03-06T15:19:22.583Z,11.13
2023-03-06T15:21:55.403Z,11.35
2023-03-06T15:24:33.106Z,11.98
2023-03-06T15:27:16.390Z,11.45
2023-03-06T15:29:45.958Z,11.43
2023-03-06T15:32:18.909Z,12.10
2023-03-06T15:35:08.211Z,12.77
2023-03-06T15:37:34.786Z,13.18
2023-03-06T15:40:09.211Z,11.82
2023-03-06T15:42:36.361Z,10.65
2023-03-06T15:45:15.881Z,11.73
2023-03-06T15:47:46.238Z,11.73
2023-03-06T15:50:25.211Z,11.35
2023-03-06T15:52:52.754Z,10.73
2023-03-06T15:55:21.916Z,10.60
2023-03-06T15:58:03.380Z,10.40
2023-03-06T16:00:35.263Z,12.18
2023-03-06T16:03:02.968Z,12.13
2023-03-06T16:05:32.479Z,11.23
2023-03-06T16:08:01.301Z,11.43
2023-03-06T16:10:33.701Z,11.03
2023-03-06T16:13:06.729Z,12.88
2023-03-06T16:15:41.481Z,11.43
2023-03-06T16:18:11.971Z,10.57
2023-03-06T16:20:40.126Z,10.70
2023-03-06T16:23:10.595Z,10.17
2023-03-06T16:25:42.296Z,12.82
2023-03-06T16:28:14.410Z,10.32
2023-03-06T16:30:45.513Z,11.80
2023-03-06T16:33:13.325Z,10.88
2023-03-06T16:35:41.208Z,11.83
2023-03-06T16:38:07.919Z,11.93
2023-03-06T16:40:38.830Z,11.98
2023-03-06T16:43:05.587Z,11.23
2023-03-06T16:45:36.502Z,12.15
2023-03-06T16:48:03.489Z,10.20
2023-03-06T16:50:40.816Z,14.52
2023-03-06T16:53:08.166Z,12.18
2023-03-06T16:55:37.407Z,12.82
2023-03-06T16:58:06.689Z,11.90
2023-03-06T17:00:33.409Z,10.90
2023-03-06T17:03:02.713Z,11.60
2023-03-06T17:05:33.126Z,10.77
2023-03-06T17:07:59.683Z,12.15
2023-03-06T17:10:27.249Z,10.90
2023-03-06T17:12:55.342Z,12.17
2023-03-06T17:15:22.428Z,12.00
2023-03-06T17:17:49.302Z,12.05
2023-03-06T17:20:16.114Z,10.55
2023-03-06T17:22:45.425Z,13.93
2023-03-06T17:25:14.283Z,13.70
2023-03-06T17:27:40.903Z,14.18
2023-03-06T17:30:07.978Z,12.82
2023-03-06T17:32:34.737Z,14.60
2023-03-06T17:35:03.439Z,11.90
2023-03-06T17:37:31.961Z,11.50
2023-03-06T17:40:00.784Z,15.02
2023-03-06T17:42:27.379Z,13.02
2023-03-06T17:44:57.406Z,12.30
2023-03-06T17:47:26.945Z,11.70
2023-03-06T17:49:54.008Z,11.70
2023-03-06T17:52:20.514Z,11.95
2023-03-06T17:54:49.284Z,14.88
2023-03-06T17:57:16.031Z,11.35
2023-03-06T17:59:48.741Z,10.68
2023-03-06T18:02:15.813Z,12.37
2023-03-06T18:04:44.602Z,12.50
2023-03-06T18:07:13.681Z,11.40
2023-03-06T18:09:44.013Z,13.60
2023-03-06T18:12:10.643Z,13.48
2023-03-06T18:14:37.243Z,13.20
2023-03-06T18:17:04.753Z,14.18
2023-03-06T18:19:33.604Z,12.20
2023-03-06T18:22:00.568Z,13.02
2023-03-06T18:24:27.340Z,11.77
2023-03-06T18:26:53.897Z,10.40
2023-03-06T18:29:25.899Z,13.63
2023-03-06T18:31:56.829Z,12.20
2023-03-06T18:34:23.426Z,12.60
2023-03-06T18:36:52.950Z,13.68
2023-03-06T18:39:21.426Z,12.90
2023-03-06T18:41:48.256Z,13.82
2023-03-06T18:44:16.310Z,11.27
2023-03-06T18:46:43.489Z,12.57
2023-03-06T18:49:11.794Z,13.48
2023-03-06T18:51:38.478Z,12.47
2023-03-06T18:54:08.015Z,13.15
2023-03-06T18:56:34.823Z,14.40
2023-03-06T18:59:03.961Z,13.23
2023-03-06T19:01:33.697Z,12.15
2023-03-06T19:04:02.172Z,12.20
2023-03-06T19:06:31.458Z,12.80
2023-03-06T19:09:02.105Z,13.65
2023-03-06T19:11:31.974Z,11.63
2023-03-06T19:14:01.725Z,12.68
2023-03-06T19:16:32.640Z,17.87
2023-03-06T19:18:59.247Z,12.77
2023-03-06T19:21:27.562Z,10.93
2023-03-06T19:23:57.279Z,12.13
2023-03-06T19:26:24.528Z,10.85
2023-03-06T19:28:52.422Z,11.43
2023-03-06T19:31:25.189Z,12.35
2023-03-06T19:33:53.368Z,11.38
2023-03-06T19:36:23.736Z,13.18
2023-03-06T19:38:56.872Z,12.30
2023-03-06T19:41:23.561Z,12.53
2023-03-06T19:43:53.055Z,15.48
2023-03-06T19:46:20.926Z,11.77
2023-03-06T19:48:47.899Z,13.70
2023-03-06T19:51:14.624Z,12.27
2023-03-06T19:53:44.468Z,13.57
2023-03-06T19:56:20.009Z,12.07
2023-03-06T19:58:46.567Z,13.45
2023-03-06T20:01:17.966Z,14.70
2023-03-06T20:03:46.775Z,14.02
2023-03-06T20:06:16.043Z,11.37
2023-03-06T20:08:46.657Z,12.70
2023-03-06T20:11:25.269Z,11.90
2023-03-06T20:13:54.628Z,10.45
2023-03-06T20:16:21.214Z,11.40
2023-03-06T20:18:47.947Z,12.83
2023-03-06T20:21:15.438Z,12.85
2023-03-06T20:23:42.796Z,12.02
2023-03-06T20:26:14.336Z,14.23
2023-03-06T20:28:42.240Z,11.98
2023-03-06T20:31:18.202Z,11.40
2023-03-06T20:33:50.516Z,13.32
2023-03-06T20:36:22.066Z,13.23
2023-03-06T20:38:51.377Z,13.52
2023-03-06T20:41:21.509Z,12.15
2023-03-06T20:43:50.828Z,13.03
2023-03-06T20:46:18.857Z,16.73
2023-03-06T20:48:48.446Z,13.18
2023-03-06T20:51:16.926Z,14.85
2023-03-06T20:53:46.453Z,15.30
2023-03-06T20:56:17.014Z,13.37
2023-03-06T20:58:44.401Z,11.80
2023-03-06T21:01:26.441Z,13.68
2023-03-06T21:03:54.064Z,12.98
2023-03-06T21:06:21.364Z,12.45
2023-03-06T21:08:50.755Z,11.47
2023-03-06T21:11:17.787Z,13.32
2023-03-06T21:13:46.677Z,12.13
2023-03-06T21:16:19.422Z,14.63
2023-03-06T21:18:48.538Z,15.70
2023-03-06T21:21:21.385Z,14.97
2023-03-06T21:23:48.669Z,14.27
2023-03-06T21:26:19.021Z,14.93
2023-03-06T21:28:46.037Z,14.43
2023-03-06T21:31:14.215Z,13.70
2023-03-06T21:33:43.810Z,12.60
2023-03-06T21:36:10.775Z,12.02
2023-03-06T21:38:39.163Z,13.13
2023-03-06T21:41:14.426Z,12.18
2023-03-06T21:43:41.917Z,13.50
2023-03-06T21:46:09.752Z,13.00
2023-03-06T21:48:36.745Z,12.48
2023-03-06T21:51:19.483Z,14.90
2023-03-06T21:53:47.551Z,12.50
2023-03-06T21:56:18.471Z,14.35
2023-03-06T21:58:46.059Z,11.07
2023-03-06T22:01:16.041Z,13.13
2023-03-06T22:03:47.498Z,13.45
2023-03-06T22:06:21.812Z,14.32
2023-03-06T22:08:48.505Z,12.48
2023-03-06T22:11:17.814Z,14.27
2023-03-06T22:13:45.028Z,13.27
2023-03-06T22:16:12.710Z,12.88
2023-03-06T22:18:42.392Z,14.20
2023-03-06T22:21:13.233Z,12.95
2023-03-06T22:23:43.261Z,12.07
2023-03-06T22:26:12.800Z,14.10
2023-03-06T22:28:42.647Z,11.90
2023-03-06T22:31:14.577Z,11.80
2023-03-06T22:33:44.216Z,14.95
2023-03-06T22:36:13.969Z,12.57
2023-03-06T22:38:44.847Z,15.55
2023-03-06T22:41:15.809Z,12.32
2023-03-06T22:43:45.151Z,12.82
2023-03-06T22:46:14.857Z,16.63
2023-03-06T22:48:46.984Z,14.03
2023-03-06T22:51:18.410Z,13.23
2023-03-06T22:53:45.693Z,12.48
2023-03-06T22:56:15.189Z,14.57
2023-03-06T22:58:44.910Z,13.40
2023-03-06T23:01:17.372Z,15.07
2023-03-06T23:03:50.962Z,15.20
2023-03-06T23:06:20.743Z,13.57
2023-03-06T23:08:55.422Z,14.98
2023-03-06T23:11:25.413Z,11.60
2023-03-06T23:13:55.182Z,14.93
2023-03-06T23:16:21.856Z,13.75
2023-03-06T23:18:51.278Z,12.40
2023-03-06T23:21:24.580Z,13.40
2023-03-06T23:23:54.986Z,12.50
2023-03-06T23:26:24.598Z,12.00
2023-03-06T23:28:54.117Z,14.20
2023-03-06T23:31:24.258Z,12.93
2023-03-06T23:33:53.081Z,14.63
2023-03-06T23:36:19.742Z,14.63
2023-03-06T23:38:48.705Z,15.63
2023-03-06T23:41:20.545Z,12.35
2023-03-06T23:43:48.071Z,14.27
2023-03-06T23:46:15.117Z,12.57
2023-03-06T23:48:44.523Z,13.95
2023-03-06T23:51:22.616Z,13.60
2023-03-06T23:53:58.129Z,12.25
2023-03-06T23:56:26.469Z,13.70
2023-03-06T23:58:55.996Z,13.70
